sensor_id;sensor_type;location;lat;lon;timestamp;P1;durP1;ratioP1;P2;durP2;ratioP2
52730;SDS011;38624;53.242;6.974;2024-03-08T00:00:15;76.28;;;31.30;;
52730;SDS011;38624;53.242;6.974;2024-03-08T00:02:43;83.97;;;34.13;;
52730;SDS011;38624;53.242;6.974;2024-03-08T00:05:10;81.78;;;32.25;;
52730;SDS011;38624;53.242;6.974;2024-03-08T00:07:36;77.78;;;33.70;;
52730;SDS011;38624;53.242;6.974;2024-03-08T00:10:03;74.65;;;32.28;;
52730;SDS011;38624;53.242;6.974;2024-03-08T00:12:29;86.63;;;34.80;;
52730;SDS011;38624;53.242;6.974;2024-03-08T00:14:55;88.05;;;35.38;;
52730;SDS011;38624;53.242;6.974;2024-03-08T00:17:22;85.50;;;33.47;;
52730;SDS011;38624;53.242;6.974;2024-03-08T00:19:51;91.57;;;35.33;;
52730;SDS011;38624;53.242;6.974;2024-03-08T00:22:17;87.33;;;34.30;;
52730;SDS011;38624;53.242;6.974;2024-03-08T00:24:44;86.80;;;34.00;;
52730;SDS011;38624;53.242;6.974;2024-03-08T00:27:10;80.75;;;32.80;;
52730;SDS011;38624;53.242;6.974;2024-03-08T00:29:36;87.30;;;34.47;;
52730;SDS011;38624;53.242;6.974;2024-03-08T00:32:04;86.87;;;34.03;;
52730;SDS011;38624;53.242;6.974;2024-03-08T00:34:30;94.90;;;35.70;;
52730;SDS011;38624;53.242;6.974;2024-03-08T00:36:57;92.40;;;34.35;;
52730;SDS011;38624;53.242;6.974;2024-03-08T00:39:23;91.70;;;34.58;;
52730;SDS011;38624;53.242;6.974;2024-03-08T00:44:16;86.13;;;32.57;;
52730;SDS011;38624;53.242;6.974;2024-03-08T00:46:42;89.63;;;33.03;;
52730;SDS011;38624;53.242;6.974;2024-03-08T00:49:08;85.78;;;32.42;;
52730;SDS011;38624;53.242;6.974;2024-03-08T00:51:35;90.88;;;33.50;;
52730;SDS011;38624;53.242;6.974;2024-03-08T00:54:01;82.00;;;33.70;;
52730;SDS011;38624;53.242;6.974;2024-03-08T00:56:27;96.13;;;34.73;;
52730;SDS011;38624;53.242;6.974;2024-03-08T00:58:53;82.85;;;32.53;;
52730;SDS011;38624;53.242;6.974;2024-03-08T01:01:19;84.77;;;34.20;;
52730;SDS011;38624;53.242;6.974;2024-03-08T01:03:45;86.90;;;33.00;;
52730;SDS011;38624;53.242;6.974;2024-03-08T01:06:11;95.53;;;34.47;;
52730;SDS011;38624;53.242;6.974;2024-03-08T01:08:38;82.77;;;32.70;;
52730;SDS011;38624;53.242;6.974;2024-03-08T01:11:07;91.00;;;33.30;;
52730;SDS011;38624;53.242;6.974;2024-03-08T01:13:34;81.20;;;32.92;;
52730;SDS011;38624;53.242;6.974;2024-03-08T01:18:28;84.00;;;30.93;;
52730;SDS011;38624;53.242;6.974;2024-03-08T01:20:55;81.72;;;31.75;;
52730;SDS011;38624;53.242;6.974;2024-03-08T01:23:21;84.03;;;32.90;;
52730;SDS011;38624;53.242;6.974;2024-03-08T01:25:48;94.37;;;34.03;;
52730;SDS011;38624;53.242;6.974;2024-03-08T01:28:17;82.90;;;32.43;;
52730;SDS011;38624;53.242;6.974;2024-03-08T01:30:43;88.63;;;34.43;;
52730;SDS011;38624;53.242;6.974;2024-03-08T01:33:10;88.60;;;32.87;;
52730;SDS011;38624;53.242;6.974;2024-03-08T01:35:36;88.68;;;33.35;;
52730;SDS011;38624;53.242;6.974;2024-03-08T01:38:06;78.97;;;32.53;;
52730;SDS011;38624;53.242;6.974;2024-03-08T01:40:35;84.43;;;33.17;;
52730;SDS011;38624;53.242;6.974;2024-03-08T01:43:25;82.93;;;32.83;;
52730;SDS011;38624;53.242;6.974;2024-03-08T01:45:48;78.80;;;32.43;;
52730;SDS011;38624;53.242;6.974;2024-03-08T01:48:17;82.60;;;31.52;;
52730;SDS011;38624;53.242;6.974;2024-03-08T01:50:44;78.73;;;30.77;;
52730;SDS011;38624;53.242;6.974;2024-03-08T01:53:11;72.83;;;31.33;;
52730;SDS011;38624;53.242;6.974;2024-03-08T01:55:40;83.87;;;31.40;;
52730;SDS011;38624;53.242;6.974;2024-03-08T01:58:06;79.45;;;31.45;;
52730;SDS011;38624;53.242;6.974;2024-03-08T02:00:35;79.73;;;30.13;;
52730;SDS011;38624;53.242;6.974;2024-03-08T02:03:03;78.03;;;32.17;;
52730;SDS011;38624;53.242;6.974;2024-03-08T02:05:29;82.97;;;32.60;;
52730;SDS011;38624;53.242;6.974;2024-03-08T02:07:55;75.95;;;30.60;;
52730;SDS011;38624;53.242;6.974;2024-03-08T02:10:22;69.45;;;30.58;;
52730;SDS011;38624;53.242;6.974;2024-03-08T02:12:48;83.20;;;31.10;;
52730;SDS011;38624;53.242;6.974;2024-03-08T02:15:14;73.00;;;31.10;;
52730;SDS011;38624;53.242;6.974;2024-03-08T02:17:40;82.20;;;31.63;;
52730;SDS011;38624;53.242;6.974;2024-03-08T02:20:07;78.00;;;31.90;;
52730;SDS011;38624;53.242;6.974;2024-03-08T02:22:34;75.67;;;31.00;;
52730;SDS011;38624;53.242;6.974;2024-03-08T02:25:01;71.72;;;29.85;;
52730;SDS011;38624;53.242;6.974;2024-03-08T02:27:28;73.87;;;29.63;;
52730;SDS011;38624;53.242;6.974;2024-03-08T02:29:55;77.75;;;30.23;;
52730;SDS011;38624;53.242;6.974;2024-03-08T02:32:22;75.47;;;31.08;;
52730;SDS011;38624;53.242;6.974;2024-03-08T02:34:48;66.93;;;31.17;;
52730;SDS011;38624;53.242;6.974;2024-03-08T02:37:15;78.47;;;30.70;;
52730;SDS011;38624;53.242;6.974;2024-03-08T02:39:41;70.88;;;29.17;;
52730;SDS011;38624;53.242;6.974;2024-03-08T02:42:07;78.90;;;31.13;;
52730;SDS011;38624;53.242;6.974;2024-03-08T02:44:34;78.47;;;31.37;;
52730;SDS011;38624;53.242;6.974;2024-03-08T02:47:00;78.17;;;31.63;;
52730;SDS011;38624;53.242;6.974;2024-03-08T02:49:26;81.88;;;30.63;;
52730;SDS011;38624;53.242;6.974;2024-03-08T02:51:52;80.70;;;31.27;;
52730;SDS011;38624;53.242;6.974;2024-03-08T02:54:19;79.10;;;30.23;;
52730;SDS011;38624;53.242;6.974;2024-03-08T02:56:46;73.43;;;29.73;;
52730;SDS011;38624;53.242;6.974;2024-03-08T02:59:12;73.30;;;31.02;;
52730;SDS011;38624;53.242;6.974;2024-03-08T03:01:38;79.15;;;31.23;;
52730;SDS011;38624;53.242;6.974;2024-03-08T03:04:06;67.90;;;29.33;;
52730;SDS011;38624;53.242;6.974;2024-03-08T03:06:32;73.90;;;30.10;;
52730;SDS011;38624;53.242;6.974;2024-03-08T03:08:59;72.82;;;29.10;;
52730;SDS011;38624;53.242;6.974;2024-03-08T03:11:25;71.05;;;30.48;;
52730;SDS011;38624;53.242;6.974;2024-03-08T03:13:54;70.35;;;30.02;;
52730;SDS011;38624;53.242;6.974;2024-03-08T03:16:20;74.43;;;30.23;;
52730;SDS011;38624;53.242;6.974;2024-03-08T03:18:47;64.60;;;29.48;;
52730;SDS011;38624;53.242;6.974;2024-03-08T03:21:14;68.82;;;29.40;;
52730;SDS011;38624;53.242;6.974;2024-03-08T03:23:43;74.33;;;30.10;;
52730;SDS011;38624;53.242;6.974;2024-03-08T03:26:09;69.67;;;29.13;;
52730;SDS011;38624;53.242;6.974;2024-03-08T03:28:38;71.90;;;29.37;;
52730;SDS011;38624;53.242;6.974;2024-03-08T03:31:06;73.60;;;28.95;;
52730;SDS011;38624;53.242;6.974;2024-03-08T03:33:32;67.47;;;28.17;;
52730;SDS011;38624;53.242;6.974;2024-03-08T03:36:02;73.27;;;28.17;;
52730;SDS011;38624;53.242;6.974;2024-03-08T03:38:30;74.33;;;30.27;;
52730;SDS011;38624;53.242;6.974;2024-03-08T03:40:56;77.32;;;30.55;;
52730;SDS011;38624;53.242;6.974;2024-03-08T03:43:29;73.47;;;29.20;;
52730;SDS011;38624;53.242;6.974;2024-03-08T03:45:55;76.97;;;30.30;;
52730;SDS011;38624;53.242;6.974;2024-03-08T03:48:21;70.73;;;29.33;;
52730;SDS011;38624;53.242;6.974;2024-03-08T03:50:47;66.33;;;27.53;;
52730;SDS011;38624;53.242;6.974;2024-03-08T03:53:15;67.57;;;29.40;;
52730;SDS011;38624;53.242;6.974;2024-03-08T03:55:41;71.20;;;28.73;;
52730;SDS011;38624;53.242;6.974;2024-03-08T03:58:08;75.73;;;28.83;;
52730;SDS011;38624;53.242;6.974;2024-03-08T04:00:37;69.67;;;28.93;;
52730;SDS011;38624;53.242;6.974;2024-03-08T04:03:03;67.43;;;28.33;;
52730;SDS011;38624;53.242;6.974;2024-03-08T04:05:29;69.47;;;29.37;;
52730;SDS011;38624;53.242;6.974;2024-03-08T04:07:56;82.13;;;29.60;;
52730;SDS011;38624;53.242;6.974;2024-03-08T04:10:22;70.67;;;28.50;;
52730;SDS011;38624;53.242;6.974;2024-03-08T04:12:48;72.60;;;29.20;;
52730;SDS011;38624;53.242;6.974;2024-03-08T04:15:14;72.87;;;28.60;;
52730;SDS011;38624;53.242;6.974;2024-03-08T04:17:40;70.67;;;28.50;;
52730;SDS011;38624;53.242;6.974;2024-03-08T04:20:06;66.07;;;28.43;;
52730;SDS011;38624;53.242;6.974;2024-03-08T04:22:36;69.47;;;29.67;;
52730;SDS011;38624;53.242;6.974;2024-03-08T04:25:03;65.93;;;28.45;;
52730;SDS011;38624;53.242;6.974;2024-03-08T04:27:29;65.10;;;28.67;;
52730;SDS011;38624;53.242;6.974;2024-03-08T04:29:55;70.27;;;29.87;;
52730;SDS011;38624;53.242;6.974;2024-03-08T04:32:22;65.28;;;28.15;;
52730;SDS011;38624;53.242;6.974;2024-03-08T04:34:48;60.47;;;27.83;;
52730;SDS011;38624;53.242;6.974;2024-03-08T04:37:14;74.38;;;28.88;;
52730;SDS011;38624;53.242;6.974;2024-03-08T04:39:43;63.63;;;26.73;;
52730;SDS011;38624;53.242;6.974;2024-03-08T04:42:09;67.83;;;28.23;;
52730;SDS011;38624;53.242;6.974;2024-03-08T04:44:36;68.38;;;29.10;;
52730;SDS011;38624;53.242;6.974;2024-03-08T04:47:05;65.60;;;27.37;;
52730;SDS011;38624;53.242;6.974;2024-03-08T04:49:34;69.20;;;26.27;;
52730;SDS011;38624;53.242;6.974;2024-03-08T04:52:01;62.63;;;27.07;;
52730;SDS011;38624;53.242;6.974;2024-03-08T04:54:28;68.13;;;27.63;;
52730;SDS011;38624;53.242;6.974;2024-03-08T04:56:54;61.90;;;27.92;;
52730;SDS011;38624;53.242;6.974;2024-03-08T04:59:22;57.92;;;26.20;;
52730;SDS011;38624;53.242;6.974;2024-03-08T05:01:49;66.17;;;28.10;;
52730;SDS011;38624;53.242;6.974;2024-03-08T05:04:15;62.77;;;26.80;;
52730;SDS011;38624;53.242;6.974;2024-03-08T05:06:41;75.87;;;26.67;;
52730;SDS011;38624;53.242;6.974;2024-03-08T05:09:07;67.87;;;26.73;;
52730;SDS011;38624;53.242;6.974;2024-03-08T05:11:40;67.20;;;26.50;;
52730;SDS011;38624;53.242;6.974;2024-03-08T05:14:07;63.93;;;26.73;;
52730;SDS011;38624;53.242;6.974;2024-03-08T05:16:34;64.10;;;26.55;;
52730;SDS011;38624;53.242;6.974;2024-03-08T05:19:00;64.93;;;28.15;;
52730;SDS011;38624;53.242;6.974;2024-03-08T05:21:27;53.85;;;23.00;;
52730;SDS011;38624;53.242;6.974;2024-03-08T05:23:54;67.30;;;26.65;;
52730;SDS011;38624;53.242;6.974;2024-03-08T05:26:20;60.00;;;26.85;;
52730;SDS011;38624;53.242;6.974;2024-03-08T05:28:47;61.75;;;25.83;;
52730;SDS011;38624;53.242;6.974;2024-03-08T05:31:20;63.15;;;26.30;;
52730;SDS011;38624;53.242;6.974;2024-03-08T05:33:49;66.10;;;26.97;;
52730;SDS011;38624;53.242;6.974;2024-03-08T05:36:16;63.63;;;26.85;;
52730;SDS011;38624;53.242;6.974;2024-03-08T05:38:45;59.17;;;26.52;;
52730;SDS011;38624;53.242;6.974;2024-03-08T05:41:11;61.77;;;26.77;;
52730;SDS011;38624;53.242;6.974;2024-03-08T05:43:37;69.17;;;26.83;;
52730;SDS011;38624;53.242;6.974;2024-03-08T05:46:04;66.03;;;26.55;;
52730;SDS011;38624;53.242;6.974;2024-03-08T05:48:30;61.75;;;26.70;;
52730;SDS011;38624;53.242;6.974;2024-03-08T05:51:00;67.37;;;26.87;;
52730;SDS011;38624;53.242;6.974;2024-03-08T05:53:27;56.17;;;25.07;;
52730;SDS011;38624;53.242;6.974;2024-03-08T05:55:57;59.80;;;26.13;;
52730;SDS011;38624;53.242;6.974;2024-03-08T05:58:23;62.60;;;25.33;;
52730;SDS011;38624;53.242;6.974;2024-03-08T06:00:50;69.43;;;26.83;;
52730;SDS011;38624;53.242;6.974;2024-03-08T06:03:16;60.10;;;25.63;;
52730;SDS011;38624;53.242;6.974;2024-03-08T06:05:43;67.45;;;25.65;;
52730;SDS011;38624;53.242;6.974;2024-03-08T06:08:09;59.20;;;25.43;;
52730;SDS011;38624;53.242;6.974;2024-03-08T06:10:36;60.43;;;25.33;;
52730;SDS011;38624;53.242;6.974;2024-03-08T06:13:03;66.38;;;26.80;;
52730;SDS011;38624;53.242;6.974;2024-03-08T06:15:29;62.92;;;26.02;;
52730;SDS011;38624;53.242;6.974;2024-03-08T06:17:55;70.88;;;27.75;;
52730;SDS011;38624;53.242;6.974;2024-03-08T06:20:21;65.40;;;26.10;;
52730;SDS011;38624;53.242;6.974;2024-03-08T06:22:51;63.80;;;26.30;;
52730;SDS011;38624;53.242;6.974;2024-03-08T06:25:17;62.40;;;25.65;;
52730;SDS011;38624;53.242;6.974;2024-03-08T06:27:44;64.35;;;25.08;;
52730;SDS011;38624;53.242;6.974;2024-03-08T06:30:11;69.33;;;26.37;;
52730;SDS011;38624;53.242;6.974;2024-03-08T06:32:38;67.68;;;25.85;;
52730;SDS011;38624;53.242;6.974;2024-03-08T06:35:04;61.38;;;26.10;;
52730;SDS011;38624;53.242;6.974;2024-03-08T06:37:35;65.43;;;25.23;;
52730;SDS011;38624;53.242;6.974;2024-03-08T06:40:02;64.90;;;25.73;;
52730;SDS011;38624;53.242;6.974;2024-03-08T06:42:29;67.37;;;26.87;;
52730;SDS011;38624;53.242;6.974;2024-03-08T06:44:59;61.07;;;26.17;;
52730;SDS011;38624;53.242;6.974;2024-03-08T06:47:29;71.30;;;25.97;;
52730;SDS011;38624;53.242;6.974;2024-03-08T06:49:55;63.88;;;26.42;;
52730;SDS011;38624;53.242;6.974;2024-03-08T06:52:22;60.22;;;25.17;;
52730;SDS011;38624;53.242;6.974;2024-03-08T06:54:50;62.17;;;26.70;;
52730;SDS011;38624;53.242;6.974;2024-03-08T06:57:17;60.92;;;25.48;;
52730;SDS011;38624;53.242;6.974;2024-03-08T06:59:52;65.97;;;26.60;;
52730;SDS011;38624;53.242;6.974;2024-03-08T07:02:21;58.20;;;24.93;;
52730;SDS011;38624;53.242;6.974;2024-03-08T07:04:50;71.87;;;26.73;;
52730;SDS011;38624;53.242;6.974;2024-03-08T07:07:16;64.28;;;26.55;;
52730;SDS011;38624;53.242;6.974;2024-03-08T07:09:45;62.80;;;26.17;;
52730;SDS011;38624;53.242;6.974;2024-03-08T07:12:11;72.68;;;27.48;;
52730;SDS011;38624;53.242;6.974;2024-03-08T07:14:38;67.82;;;26.98;;
52730;SDS011;38624;53.242;6.974;2024-03-08T07:17:10;64.73;;;27.30;;
52730;SDS011;38624;53.242;6.974;2024-03-08T07:19:37;61.53;;;26.42;;
52730;SDS011;38624;53.242;6.974;2024-03-08T07:22:06;67.07;;;27.43;;
52730;SDS011;38624;53.242;6.974;2024-03-08T07:24:34;68.20;;;28.03;;
52730;SDS011;38624;53.242;6.974;2024-03-08T07:27:19;67.07;;;28.80;;
52730;SDS011;38624;53.242;6.974;2024-03-08T07:29:45;65.17;;;26.43;;
52730;SDS011;38624;53.242;6.974;2024-03-08T07:32:11;64.03;;;28.67;;
52730;SDS011;38624;53.242;6.974;2024-03-08T07:34:46;61.33;;;26.73;;
52730;SDS011;38624;53.242;6.974;2024-03-08T07:37:15;71.53;;;28.57;;
52730;SDS011;38624;53.242;6.974;2024-03-08T07:39:42;69.27;;;28.27;;
52730;SDS011;38624;53.242;6.974;2024-03-08T07:42:08;62.92;;;28.08;;
52730;SDS011;38624;53.242;6.974;2024-03-08T07:44:38;65.63;;;28.23;;
52730;SDS011;38624;53.242;6.974;2024-03-08T07:47:05;68.90;;;28.35;;
52730;SDS011;38624;53.242;6.974;2024-03-08T07:49:34;67.90;;;29.10;;
52730;SDS011;38624;53.242;6.974;2024-03-08T07:52:03;64.73;;;28.13;;
52730;SDS011;38624;53.242;6.974;2024-03-08T07:54:31;64.63;;;28.17;;
52730;SDS011;38624;53.242;6.974;2024-03-08T07:56:57;60.10;;;28.47;;
52730;SDS011;38624;53.242;6.974;2024-03-08T07:59:23;60.57;;;28.53;;
52730;SDS011;38624;53.242;6.974;2024-03-08T08:01:55;68.13;;;28.53;;
52730;SDS011;38624;53.242;6.974;2024-03-08T08:04:22;61.08;;;28.58;;
52730;SDS011;38624;53.242;6.974;2024-03-08T08:06:50;62.00;;;29.57;;
52730;SDS011;38624;53.242;6.974;2024-03-08T08:09:16;61.85;;;29.25;;
52730;SDS011;38624;53.242;6.974;2024-03-08T08:11:53;64.30;;;28.27;;
52730;SDS011;38624;53.242;6.974;2024-03-08T08:14:20;60.20;;;28.75;;
52730;SDS011;38624;53.242;6.974;2024-03-08T08:16:46;61.33;;;28.27;;
52730;SDS011;38624;53.242;6.974;2024-03-08T08:19:15;61.00;;;28.90;;
52730;SDS011;38624;53.242;6.974;2024-03-08T08:21:41;60.67;;;27.90;;
52730;SDS011;38624;53.242;6.974;2024-03-08T08:24:07;59.05;;;29.63;;
52730;SDS011;38624;53.242;6.974;2024-03-08T08:26:33;60.53;;;28.95;;
52730;SDS011;38624;53.242;6.974;2024-03-08T08:29:02;63.43;;;29.03;;
52730;SDS011;38624;53.242;6.974;2024-03-08T08:31:28;67.88;;;31.33;;
52730;SDS011;38624;53.242;6.974;2024-03-08T08:33:56;61.87;;;30.40;;
52730;SDS011;38624;53.242;6.974;2024-03-08T08:36:25;63.60;;;30.77;;
52730;SDS011;38624;53.242;6.974;2024-03-08T08:38:51;65.97;;;31.70;;
52730;SDS011;38624;53.242;6.974;2024-03-08T08:41:21;67.50;;;31.37;;
52730;SDS011;38624;53.242;6.974;2024-03-08T08:43:48;63.25;;;29.90;;
52730;SDS011;38624;53.242;6.974;2024-03-08T08:46:17;57.15;;;29.80;;
52730;SDS011;38624;53.242;6.974;2024-03-08T08:48:44;59.17;;;28.60;;
52730;SDS011;38624;53.242;6.974;2024-03-08T08:51:12;52.40;;;27.80;;
52730;SDS011;38624;53.242;6.974;2024-03-08T08:53:42;57.80;;;30.45;;
52730;SDS011;38624;53.242;6.974;2024-03-08T08:56:11;56.90;;;28.63;;
52730;SDS011;38624;53.242;6.974;2024-03-08T09:01:06;58.00;;;29.67;;
52730;SDS011;38624;53.242;6.974;2024-03-08T09:03:38;57.63;;;29.50;;
52730;SDS011;38624;53.242;6.974;2024-03-08T09:06:11;59.03;;;29.67;;
52730;SDS011;38624;53.242;6.974;2024-03-08T09:08:41;53.88;;;29.48;;
52730;SDS011;38624;53.242;6.974;2024-03-08T09:11:09;56.83;;;29.97;;
52730;SDS011;38624;53.242;6.974;2024-03-08T09:13:35;53.60;;;28.77;;
52730;SDS011;38624;53.242;6.974;2024-03-08T09:16:04;56.37;;;29.67;;
52730;SDS011;38624;53.242;6.974;2024-03-08T09:18:31;54.97;;;29.30;;
52730;SDS011;38624;53.242;6.974;2024-03-08T09:20:58;54.10;;;29.70;;
52730;SDS011;38624;53.242;6.974;2024-03-08T09:23:25;50.35;;;28.52;;
52730;SDS011;38624;53.242;6.974;2024-03-08T09:25:58;51.33;;;28.07;;
52730;SDS011;38624;53.242;6.974;2024-03-08T09:28:24;56.23;;;29.73;;
52730;SDS011;38624;53.242;6.974;2024-03-08T09:30:56;53.73;;;29.87;;
52730;SDS011;38624;53.242;6.974;2024-03-08T09:33:31;50.83;;;28.60;;
52730;SDS011;38624;53.242;6.974;2024-03-08T09:35:57;54.83;;;30.07;;
52730;SDS011;38624;53.242;6.974;2024-03-08T09:38:23;52.33;;;29.67;;
52730;SDS011;38624;53.242;6.974;2024-03-08T09:40:50;50.10;;;28.25;;
52730;SDS011;38624;53.242;6.974;2024-03-08T09:43:22;49.73;;;28.13;;
52730;SDS011;38624;53.242;6.974;2024-03-08T09:45:49;52.63;;;28.42;;
52730;SDS011;38624;53.242;6.974;2024-03-08T09:48:16;48.10;;;28.02;;
52730;SDS011;38624;53.242;6.974;2024-03-08T09:50:44;48.43;;;27.97;;
52730;SDS011;38624;53.242;6.974;2024-03-08T09:53:13;44.58;;;26.75;;
52730;SDS011;38624;53.242;6.974;2024-03-08T09:55:40;48.47;;;27.47;;
52730;SDS011;38624;53.242;6.974;2024-03-08T09:58:10;48.60;;;27.83;;
52730;SDS011;38624;53.242;6.974;2024-03-08T10:01:07;45.80;;;26.70;;
52730;SDS011;38624;53.242;6.974;2024-03-08T10:03:33;47.03;;;27.53;;
52730;SDS011;38624;53.242;6.974;2024-03-08T10:06:03;46.20;;;26.57;;
52730;SDS011;38624;53.242;6.974;2024-03-08T10:08:31;46.73;;;27.77;;
52730;SDS011;38624;53.242;6.974;2024-03-08T10:10:57;44.43;;;26.50;;
52730;SDS011;38624;53.242;6.974;2024-03-08T10:13:24;42.77;;;25.97;;
52730;SDS011;38624;53.242;6.974;2024-03-08T10:15:52;41.73;;;24.87;;
52730;SDS011;38624;53.242;6.974;2024-03-08T10:18:18;41.92;;;25.95;;
52730;SDS011;38624;53.242;6.974;2024-03-08T10:21:05;42.33;;;25.33;;
52730;SDS011;38624;53.242;6.974;2024-03-08T10:23:32;43.50;;;25.13;;
52730;SDS011;38624;53.242;6.974;2024-03-08T10:26:17;44.28;;;25.52;;
52730;SDS011;38624;53.242;6.974;2024-03-08T10:28:48;41.23;;;24.07;;
52730;SDS011;38624;53.242;6.974;2024-03-08T10:31:20;42.20;;;24.70;;
52730;SDS011;38624;53.242;6.974;2024-03-08T10:33:49;46.47;;;25.47;;
52730;SDS011;38624;53.242;6.974;2024-03-08T10:36:15;42.78;;;25.00;;
52730;SDS011;38624;53.242;6.974;2024-03-08T10:38:44;40.05;;;25.38;;
52730;SDS011;38624;53.242;6.974;2024-03-08T10:41:12;43.93;;;25.73;;
52730;SDS011;38624;53.242;6.974;2024-03-08T10:44:00;44.92;;;26.77;;
52730;SDS011;38624;53.242;6.974;2024-03-08T10:49:12;44.80;;;25.53;;
52730;SDS011;38624;53.242;6.974;2024-03-08T10:51:42;42.27;;;26.00;;
52730;SDS011;38624;53.242;6.974;2024-03-08T10:54:09;43.25;;;25.85;;
52730;SDS011;38624;53.242;6.974;2024-03-08T10:56:36;43.90;;;25.60;;
52730;SDS011;38624;53.242;6.974;2024-03-08T10:59:07;42.30;;;25.67;;
52730;SDS011;38624;53.242;6.974;2024-03-08T11:01:36;43.40;;;25.47;;
52730;SDS011;38624;53.242;6.974;2024-03-08T11:04:06;43.63;;;26.02;;
52730;SDS011;38624;53.242;6.974;2024-03-08T11:11:49;40.60;;;25.50;;
52730;SDS011;38624;53.242;6.974;2024-03-08T11:19:57;41.10;;;25.07;;
52730;SDS011;38624;53.242;6.974;2024-03-08T11:22:29;41.77;;;25.80;;
52730;SDS011;38624;53.242;6.974;2024-03-08T11:25:08;40.77;;;25.27;;
52730;SDS011;38624;53.242;6.974;2024-03-08T11:27:38;39.50;;;25.10;;
52730;SDS011;38624;53.242;6.974;2024-03-08T11:30:07;37.20;;;24.42;;
52730;SDS011;38624;53.242;6.974;2024-03-08T11:32:37;37.87;;;24.20;;
52730;SDS011;38624;53.242;6.974;2024-03-08T11:35:07;41.15;;;24.88;;
52730;SDS011;38624;53.242;6.974;2024-03-08T11:37:35;38.13;;;23.70;;
52730;SDS011;38624;53.242;6.974;2024-03-08T11:40:01;39.77;;;24.57;;
52730;SDS011;38624;53.242;6.974;2024-03-08T11:42:32;37.40;;;24.13;;
52730;SDS011;38624;53.242;6.974;2024-03-08T11:45:09;40.33;;;25.53;;
52730;SDS011;38624;53.242;6.974;2024-03-08T11:47:36;39.60;;;25.03;;
52730;SDS011;38624;53.242;6.974;2024-03-08T11:50:06;42.33;;;25.60;;
52730;SDS011;38624;53.242;6.974;2024-03-08T11:52:37;41.63;;;25.70;;
52730;SDS011;38624;53.242;6.974;2024-03-08T11:55:03;36.20;;;22.90;;
52730;SDS011;38624;53.242;6.974;2024-03-08T11:57:30;39.05;;;24.20;;
52730;SDS011;38624;53.242;6.974;2024-03-08T11:59:59;36.78;;;23.52;;
52730;SDS011;38624;53.242;6.974;2024-03-08T12:02:32;34.53;;;23.15;;
52730;SDS011;38624;53.242;6.974;2024-03-08T12:05:01;36.00;;;23.20;;
52730;SDS011;38624;53.242;6.974;2024-03-08T12:07:29;38.80;;;24.03;;
52730;SDS011;38624;53.242;6.974;2024-03-08T12:12:51;38.75;;;23.92;;
52730;SDS011;38624;53.242;6.974;2024-03-08T12:15:18;36.00;;;23.40;;
52730;SDS011;38624;53.242;6.974;2024-03-08T12:17:45;35.75;;;23.02;;
52730;SDS011;38624;53.242;6.974;2024-03-08T12:20:16;37.80;;;22.77;;
52730;SDS011;38624;53.242;6.974;2024-03-08T12:22:43;37.63;;;22.52;;
52730;SDS011;38624;53.242;6.974;2024-03-08T12:25:13;34.80;;;22.27;;
52730;SDS011;38624;53.242;6.974;2024-03-08T12:27:39;34.60;;;22.83;;
52730;SDS011;38624;53.242;6.974;2024-03-08T12:30:17;31.98;;;20.73;;
52730;SDS011;38624;53.242;6.974;2024-03-08T12:32:51;33.25;;;21.77;;
52730;SDS011;38624;53.242;6.974;2024-03-08T12:35:21;32.13;;;21.52;;
52730;SDS011;38624;53.242;6.974;2024-03-08T12:37:48;35.45;;;22.13;;
52730;SDS011;38624;53.242;6.974;2024-03-08T12:40:16;31.15;;;21.25;;
52730;SDS011;38624;53.242;6.974;2024-03-08T12:42:45;34.70;;;21.35;;
52730;SDS011;38624;53.242;6.974;2024-03-08T12:45:13;29.38;;;20.45;;
52730;SDS011;38624;53.242;6.974;2024-03-08T12:47:39;32.30;;;21.45;;
52730;SDS011;38624;53.242;6.974;2024-03-08T12:50:07;30.05;;;19.88;;
52730;SDS011;38624;53.242;6.974;2024-03-08T12:52:34;32.92;;;21.05;;
52730;SDS011;38624;53.242;6.974;2024-03-08T12:55:03;30.45;;;20.50;;
52730;SDS011;38624;53.242;6.974;2024-03-08T12:57:32;30.73;;;19.63;;
52730;SDS011;38624;53.242;6.974;2024-03-08T12:59:59;30.85;;;20.08;;
52730;SDS011;38624;53.242;6.974;2024-03-08T13:02:26;30.52;;;19.45;;
52730;SDS011;38624;53.242;6.974;2024-03-08T13:04:52;32.00;;;20.03;;
52730;SDS011;38624;53.242;6.974;2024-03-08T13:07:23;32.97;;;20.67;;
52730;SDS011;38624;53.242;6.974;2024-03-08T13:09:54;30.05;;;19.60;;
52730;SDS011;38624;53.242;6.974;2024-03-08T13:12:23;30.85;;;20.27;;
52730;SDS011;38624;53.242;6.974;2024-03-08T13:14:49;29.88;;;20.15;;
52730;SDS011;38624;53.242;6.974;2024-03-08T13:17:16;31.87;;;21.03;;
52730;SDS011;38624;53.242;6.974;2024-03-08T13:19:46;27.83;;;18.50;;
52730;SDS011;38624;53.242;6.974;2024-03-08T13:22:12;28.13;;;19.17;;
52730;SDS011;38624;53.242;6.974;2024-03-08T13:24:44;29.25;;;19.45;;
52730;SDS011;38624;53.242;6.974;2024-03-08T13:27:10;29.05;;;19.10;;
52730;SDS011;38624;53.242;6.974;2024-03-08T13:29:55;27.67;;;18.67;;
52730;SDS011;38624;53.242;6.974;2024-03-08T13:32:21;29.40;;;19.50;;
52730;SDS011;38624;53.242;6.974;2024-03-08T13:34:49;29.00;;;19.13;;
52730;SDS011;38624;53.242;6.974;2024-03-08T13:37:19;28.60;;;19.55;;
52730;SDS011;38624;53.242;6.974;2024-03-08T13:39:45;29.30;;;20.90;;
52730;SDS011;38624;53.242;6.974;2024-03-08T13:42:16;32.80;;;21.00;;
52730;SDS011;38624;53.242;6.974;2024-03-08T13:44:46;30.13;;;19.70;;
52730;SDS011;38624;53.242;6.974;2024-03-08T13:47:13;31.08;;;20.17;;
52730;SDS011;38624;53.242;6.974;2024-03-08T13:49:39;30.52;;;20.67;;
52730;SDS011;38624;53.242;6.974;2024-03-08T13:52:06;30.92;;;19.63;;
52730;SDS011;38624;53.242;6.974;2024-03-08T13:54:33;29.58;;;19.55;;
52730;SDS011;38624;53.242;6.974;2024-03-08T13:57:09;29.48;;;19.17;;
52730;SDS011;38624;53.242;6.974;2024-03-08T13:59:37;29.10;;;20.05;;
52730;SDS011;38624;53.242;6.974;2024-03-08T14:02:11;36.03;;;21.17;;
52730;SDS011;38624;53.242;6.974;2024-03-08T14:04:38;33.13;;;20.88;;
52730;SDS011;38624;53.242;6.974;2024-03-08T14:07:07;30.35;;;19.63;;
52730;SDS011;38624;53.242;6.974;2024-03-08T14:09:36;30.38;;;20.63;;
52730;SDS011;38624;53.242;6.974;2024-03-08T14:12:07;33.10;;;20.35;;
52730;SDS011;38624;53.242;6.974;2024-03-08T14:14:34;29.63;;;20.92;;
52730;SDS011;38624;53.242;6.974;2024-03-08T14:17:00;27.67;;;18.90;;
52730;SDS011;38624;53.242;6.974;2024-03-08T14:19:27;30.67;;;20.77;;
52730;SDS011;38624;53.242;6.974;2024-03-08T14:21:56;32.05;;;20.00;;
52730;SDS011;38624;53.242;6.974;2024-03-08T14:24:24;29.38;;;19.80;;
52730;SDS011;38624;53.242;6.974;2024-03-08T14:26:50;29.75;;;19.40;;
52730;SDS011;38624;53.242;6.974;2024-03-08T14:29:31;32.40;;;20.58;;
52730;SDS011;38624;53.242;6.974;2024-03-08T14:32:06;31.17;;;19.85;;
52730;SDS011;38624;53.242;6.974;2024-03-08T14:34:40;32.58;;;21.13;;
52730;SDS011;38624;53.242;6.974;2024-03-08T14:37:20;32.13;;;21.10;;
52730;SDS011;38624;53.242;6.974;2024-03-08T14:39:53;32.35;;;22.02;;
52730;SDS011;38624;53.242;6.974;2024-03-08T14:42:21;32.25;;;20.50;;
52730;SDS011;38624;53.242;6.974;2024-03-08T14:44:50;34.50;;;21.60;;
52730;SDS011;38624;53.242;6.974;2024-03-08T14:47:18;33.50;;;21.13;;
52730;SDS011;38624;53.242;6.974;2024-03-08T14:49:44;56.03;;;24.02;;